sensor_id;sensor_type;location;lat;lon;timestamp;P1;durP1;ratioP1;P2;durP2;ratioP2
55069;SDS011;40967;52.070;8.596;2022-09-14T00:01:52;0.17;;;0.00;;
55069;SDS011;40967;52.070;8.596;2022-09-14T00:04:18;0.20;;;0.10;;
55069;SDS011;40967;52.070;8.596;2022-09-14T00:06:44;0.22;;;0.10;;
55069;SDS011;40967;52.070;8.596;2022-09-14T00:09:12;0.43;;;0.20;;
55069;SDS011;40967;52.070;8.596;2022-09-14T00:11:43;0.30;;;0.10;;
55069;SDS011;40967;52.070;8.596;2022-09-14T00:14:09;0.50;;;0.10;;
55069;SDS011;40967;52.070;8.596;2022-09-14T00:16:36;0.17;;;0.10;;
55069;SDS011;40967;52.070;8.596;2022-09-14T00:19:05;0.40;;;0.10;;
55069;SDS011;40967;52.070;8.596;2022-09-14T00:21:32;0.20;;;0.10;;
55069;SDS011;40967;52.070;8.596;2022-09-14T00:24:02;0.50;;;0.10;;
55069;SDS011;40967;52.070;8.596;2022-09-14T00:26:29;0.20;;;0.10;;
55069;SDS011;40967;52.070;8.596;2022-09-14T00:28:55;0.20;;;0.03;;
55069;SDS011;40967;52.070;8.596;2022-09-14T00:31:23;0.28;;;0.13;;
55069;SDS011;40967;52.070;8.596;2022-09-14T00:33:50;0.38;;;0.10;;
55069;SDS011;40967;52.070;8.596;2022-09-14T00:36:17;0.22;;;0.10;;
55069;SDS011;40967;52.070;8.596;2022-09-14T00:38:48;0.68;;;0.10;;
55069;SDS011;40967;52.070;8.596;2022-09-14T00:41:15;0.38;;;0.10;;
55069;SDS011;40967;52.070;8.596;2022-09-14T00:46:28;0.70;;;0.20;;
55069;SDS011;40967;52.070;8.596;2022-09-14T00:48:55;0.30;;;0.10;;
55069;SDS011;40967;52.070;8.596;2022-09-14T00:51:24;0.40;;;0.13;;
55069;SDS011;40967;52.070;8.596;2022-09-14T00:53:50;0.00;;;0.00;;
55069;SDS011;40967;52.070;8.596;2022-09-14T00:56:16;0.20;;;0.10;;
55069;SDS011;40967;52.070;8.596;2022-09-14T00:58:42;0.08;;;0.05;;
55069;SDS011;40967;52.070;8.596;2022-09-14T01:01:10;0.40;;;0.00;;
55069;SDS011;40967;52.070;8.596;2022-09-14T01:03:35;0.30;;;0.10;;
55069;SDS011;40967;52.070;8.596;2022-09-14T01:06:08;0.60;;;0.00;;
55069;SDS011;40967;52.070;8.596;2022-09-14T01:09:00;0.50;;;0.20;;
55069;SDS011;40967;52.070;8.596;2022-09-14T01:12:06;0.13;;;0.10;;
55069;SDS011;40967;52.070;8.596;2022-09-14T01:17:26;0.10;;;0.05;;
55069;SDS011;40967;52.070;8.596;2022-09-14T01:31:18;0.10;;;0.10;;
55069;SDS011;40967;52.070;8.596;2022-09-14T01:34:06;0.15;;;0.10;;
55069;SDS011;40967;52.070;8.596;2022-09-14T01:36:36;0.30;;;0.10;;
55069;SDS011;40967;52.070;8.596;2022-09-14T01:39:05;0.40;;;0.10;;
55069;SDS011;40967;52.070;8.596;2022-09-14T01:41:31;0.13;;;0.10;;
55069;SDS011;40967;52.070;8.596;2022-09-14T01:44:10;0.28;;;0.10;;
55069;SDS011;40967;52.070;8.596;2022-09-14T01:46:43;0.10;;;0.00;;
55069;SDS011;40967;52.070;8.596;2022-09-14T01:49:36;0.20;;;0.10;;
55069;SDS011;40967;52.070;8.596;2022-09-14T01:52:10;0.40;;;0.20;;
55069;SDS011;40967;52.070;8.596;2022-09-14T01:55:00;0.28;;;0.10;;
55069;SDS011;40967;52.070;8.596;2022-09-14T01:57:35;0.17;;;0.10;;
55069;SDS011;40967;52.070;8.596;2022-09-14T02:00:08;0.10;;;0.10;;
55069;SDS011;40967;52.070;8.596;2022-09-14T02:02:37;0.13;;;0.10;;
55069;SDS011;40967;52.070;8.596;2022-09-14T02:08:00;0.25;;;0.10;;
55069;SDS011;40967;52.070;8.596;2022-09-14T02:10:26;0.90;;;0.20;;
55069;SDS011;40967;52.070;8.596;2022-09-14T02:12:53;0.35;;;0.10;;
55069;SDS011;40967;52.070;8.596;2022-09-14T02:15:20;0.40;;;0.10;;
55069;SDS011;40967;52.070;8.596;2022-09-14T02:17:46;0.00;;;0.00;;
55069;SDS011;40967;52.070;8.596;2022-09-14T02:20:19;0.20;;;0.10;;
55069;SDS011;40967;52.070;8.596;2022-09-14T02:23:02;0.45;;;0.20;;
55069;SDS011;40967;52.070;8.596;2022-09-14T02:25:30;0.38;;;0.13;;
55069;SDS011;40967;52.070;8.596;2022-09-14T02:28:06;0.20;;;0.10;;
55069;SDS011;40967;52.070;8.596;2022-09-14T02:30:38;0.70;;;0.10;;
55069;SDS011;40967;52.070;8.596;2022-09-14T02:33:15;0.23;;;0.10;;
55069;SDS011;40967;52.070;8.596;2022-09-14T02:35:53;0.25;;;0.10;;
55069;SDS011;40967;52.070;8.596;2022-09-14T02:38:26;0.25;;;0.13;;
55069;SDS011;40967;52.070;8.596;2022-09-14T02:44:19;0.40;;;0.10;;
55069;SDS011;40967;52.070;8.596;2022-09-14T02:46:57;0.47;;;0.20;;
55069;SDS011;40967;52.070;8.596;2022-09-14T02:49:33;0.17;;;0.10;;
55069;SDS011;40967;52.070;8.596;2022-09-14T02:54:37;0.40;;;0.20;;
55069;SDS011;40967;52.070;8.596;2022-09-14T02:57:08;0.50;;;0.20;;
55069;SDS011;40967;52.070;8.596;2022-09-14T02:59:33;0.50;;;0.20;;
55069;SDS011;40967;52.070;8.596;2022-09-14T03:02:02;0.10;;;0.10;;
55069;SDS011;40967;52.070;8.596;2022-09-14T03:04:28;0.30;;;0.10;;
55069;SDS011;40967;52.070;8.596;2022-09-14T03:06:53;0.40;;;0.20;;
55069;SDS011;40967;52.070;8.596;2022-09-14T03:09:18;0.20;;;0.10;;
55069;SDS011;40967;52.070;8.596;2022-09-14T03:11:46;0.93;;;0.17;;
55069;SDS011;40967;52.070;8.596;2022-09-14T03:14:11;0.60;;;0.10;;
55069;SDS011;40967;52.070;8.596;2022-09-14T03:16:37;0.65;;;0.13;;
55069;SDS011;40967;52.070;8.596;2022-09-14T03:19:04;0.30;;;0.10;;
55069;SDS011;40967;52.070;8.596;2022-09-14T03:21:31;0.67;;;0.10;;
55069;SDS011;40967;52.070;8.596;2022-09-14T03:23:57;0.15;;;0.10;;
55069;SDS011;40967;52.070;8.596;2022-09-14T03:26:23;0.45;;;0.20;;
55069;SDS011;40967;52.070;8.596;2022-09-14T03:28:54;0.40;;;0.20;;
55069;SDS011;40967;52.070;8.596;2022-09-14T03:31:22;0.40;;;0.20;;
55069;SDS011;40967;52.070;8.596;2022-09-14T03:33:51;0.20;;;0.10;;
55069;SDS011;40967;52.070;8.596;2022-09-14T03:36:19;0.30;;;0.10;;
55069;SDS011;40967;52.070;8.596;2022-09-14T03:38:45;0.30;;;0.10;;
55069;SDS011;40967;52.070;8.596;2022-09-14T03:41:13;0.20;;;0.10;;
55069;SDS011;40967;52.070;8.596;2022-09-14T03:43:39;0.50;;;0.20;;
55069;SDS011;40967;52.070;8.596;2022-09-14T03:46:09;0.10;;;0.10;;
55069;SDS011;40967;52.070;8.596;2022-09-14T03:48:36;0.08;;;0.08;;
55069;SDS011;40967;52.070;8.596;2022-09-14T03:51:02;0.10;;;0.10;;
55069;SDS011;40967;52.070;8.596;2022-09-14T03:53:29;0.40;;;0.10;;
55069;SDS011;40967;52.070;8.596;2022-09-14T03:55:55;0.20;;;0.10;;
55069;SDS011;40967;52.070;8.596;2022-09-14T03:58:25;0.10;;;0.00;;
55069;SDS011;40967;52.070;8.596;2022-09-14T04:00:56;0.10;;;0.10;;
55069;SDS011;40967;52.070;8.596;2022-09-14T04:03:27;0.13;;;0.10;;
55069;SDS011;40967;52.070;8.596;2022-09-14T04:05:53;0.65;;;0.13;;
55069;SDS011;40967;52.070;8.596;2022-09-14T04:08:20;0.10;;;0.10;;
55069;SDS011;40967;52.070;8.596;2022-09-14T04:10:46;0.30;;;0.20;;
55069;SDS011;40967;52.070;8.596;2022-09-14T04:13:12;0.10;;;0.00;;
55069;SDS011;40967;52.070;8.596;2022-09-14T04:15:37;0.20;;;0.10;;
55069;SDS011;40967;52.070;8.596;2022-09-14T04:18:02;0.20;;;0.10;;
55069;SDS011;40967;52.070;8.596;2022-09-14T04:20:28;0.43;;;0.20;;
55069;SDS011;40967;52.070;8.596;2022-09-14T04:22:55;0.20;;;0.10;;
55069;SDS011;40967;52.070;8.596;2022-09-14T04:25:21;0.17;;;0.10;;
55069;SDS011;40967;52.070;8.596;2022-09-14T04:27:47;0.10;;;0.10;;
55069;SDS011;40967;52.070;8.596;2022-09-14T04:30:15;0.20;;;0.10;;
55069;SDS011;40967;52.070;8.596;2022-09-14T04:32:43;0.20;;;0.10;;
55069;SDS011;40967;52.070;8.596;2022-09-14T04:35:08;0.20;;;0.10;;
55069;SDS011;40967;52.070;8.596;2022-09-14T04:37:34;0.33;;;0.20;;
55069;SDS011;40967;52.070;8.596;2022-09-14T04:39:59;0.27;;;0.20;;
55069;SDS011;40967;52.070;8.596;2022-09-14T04:42:24;0.80;;;0.30;;
55069;SDS011;40967;52.070;8.596;2022-09-14T04:44:50;0.53;;;0.20;;
55069;SDS011;40967;52.070;8.596;2022-09-14T04:47:15;0.30;;;0.20;;
55069;SDS011;40967;52.070;8.596;2022-09-14T04:49:41;0.60;;;0.20;;
55069;SDS011;40967;52.070;8.596;2022-09-14T04:52:11;0.55;;;0.15;;
55069;SDS011;40967;52.070;8.596;2022-09-14T04:54:42;0.52;;;0.28;;
55069;SDS011;40967;52.070;8.596;2022-09-14T04:57:08;0.50;;;0.20;;
55069;SDS011;40967;52.070;8.596;2022-09-14T04:59:33;0.50;;;0.20;;
55069;SDS011;40967;52.070;8.596;2022-09-14T05:01:59;0.60;;;0.30;;
55069;SDS011;40967;52.070;8.596;2022-09-14T05:04:25;0.52;;;0.30;;
55069;SDS011;40967;52.070;8.596;2022-09-14T05:06:51;0.30;;;0.20;;
55069;SDS011;40967;52.070;8.596;2022-09-14T05:09:16;0.27;;;0.13;;
55069;SDS011;40967;52.070;8.596;2022-09-14T05:11:43;0.40;;;0.10;;
55069;SDS011;40967;52.070;8.596;2022-09-14T05:14:09;0.20;;;0.20;;
55069;SDS011;40967;52.070;8.596;2022-09-14T05:16:38;0.50;;;0.20;;
55069;SDS011;40967;52.070;8.596;2022-09-14T05:19:07;0.60;;;0.20;;
55069;SDS011;40967;52.070;8.596;2022-09-14T05:21:36;0.38;;;0.15;;
55069;SDS011;40967;52.070;8.596;2022-09-14T05:24:03;0.70;;;0.20;;
55069;SDS011;40967;52.070;8.596;2022-09-14T05:26:54;0.65;;;0.30;;
55069;SDS011;40967;52.070;8.596;2022-09-14T05:29:29;0.88;;;0.25;;
55069;SDS011;40967;52.070;8.596;2022-09-14T05:31:55;0.47;;;0.20;;
55069;SDS011;40967;52.070;8.596;2022-09-14T05:34:21;1.00;;;0.40;;
55069;SDS011;40967;52.070;8.596;2022-09-14T05:36:46;1.58;;;0.40;;
55069;SDS011;40967;52.070;8.596;2022-09-14T05:39:12;0.80;;;0.30;;
55069;SDS011;40967;52.070;8.596;2022-09-14T05:41:37;0.47;;;0.17;;
55069;SDS011;40967;52.070;8.596;2022-09-14T05:44:03;0.60;;;0.30;;
55069;SDS011;40967;52.070;8.596;2022-09-14T05:46:29;0.47;;;0.30;;
55069;SDS011;40967;52.070;8.596;2022-09-14T05:48:55;0.90;;;0.30;;
55069;SDS011;40967;52.070;8.596;2022-09-14T05:51:21;1.50;;;0.40;;
55069;SDS011;40967;52.070;8.596;2022-09-14T05:53:52;0.50;;;0.20;;
55069;SDS011;40967;52.070;8.596;2022-09-14T05:56:20;0.57;;;0.30;;
55069;SDS011;40967;52.070;8.596;2022-09-14T05:58:47;0.50;;;0.20;;
55069;SDS011;40967;52.070;8.596;2022-09-14T06:03:41;0.43;;;0.23;;
55069;SDS011;40967;52.070;8.596;2022-09-14T06:06:08;0.60;;;0.22;;
55069;SDS011;40967;52.070;8.596;2022-09-14T06:08:35;0.70;;;0.30;;
55069;SDS011;40967;52.070;8.596;2022-09-14T06:11:02;0.60;;;0.20;;
55069;SDS011;40967;52.070;8.596;2022-09-14T06:13:31;0.52;;;0.30;;
55069;SDS011;40967;52.070;8.596;2022-09-14T06:16:01;0.82;;;0.40;;
55069;SDS011;40967;52.070;8.596;2022-09-14T06:18:31;1.10;;;0.40;;
55069;SDS011;40967;52.070;8.596;2022-09-14T06:20:58;1.58;;;0.50;;
55069;SDS011;40967;52.070;8.596;2022-09-14T06:23:23;1.20;;;0.50;;
55069;SDS011;40967;52.070;8.596;2022-09-14T06:25:54;1.38;;;0.32;;
55069;SDS011;40967;52.070;8.596;2022-09-14T06:28:22;0.73;;;0.30;;
55069;SDS011;40967;52.070;8.596;2022-09-14T06:30:51;0.88;;;0.30;;
55069;SDS011;40967;52.070;8.596;2022-09-14T06:36:15;0.75;;;0.30;;
55069;SDS011;40967;52.070;8.596;2022-09-14T06:38:45;0.82;;;0.35;;
55069;SDS011;40967;52.070;8.596;2022-09-14T06:41:13;0.93;;;0.40;;
55069;SDS011;40967;52.070;8.596;2022-09-14T06:43:42;0.40;;;0.25;;
55069;SDS011;40967;52.070;8.596;2022-09-14T06:46:12;1.07;;;0.40;;
55069;SDS011;40967;52.070;8.596;2022-09-14T06:48:41;0.52;;;0.30;;
55069;SDS011;40967;52.070;8.596;2022-09-14T06:53:54;0.80;;;0.38;;
55069;SDS011;40967;52.070;8.596;2022-09-14T06:56:33;1.15;;;0.43;;
55069;SDS011;40967;52.070;8.596;2022-09-14T06:59:00;1.50;;;0.60;;
55069;SDS011;40967;52.070;8.596;2022-09-14T07:01:26;0.65;;;0.40;;
55069;SDS011;40967;52.070;8.596;2022-09-14T07:03:53;0.80;;;0.40;;
55069;SDS011;40967;52.070;8.596;2022-09-14T07:06:20;0.82;;;0.38;;
55069;SDS011;40967;52.070;8.596;2022-09-14T07:08:47;0.90;;;0.40;;
55069;SDS011;40967;52.070;8.596;2022-09-14T07:11:14;0.45;;;0.30;;
55069;SDS011;40967;52.070;8.596;2022-09-14T07:13:44;0.30;;;0.30;;
55069;SDS011;40967;52.070;8.596;2022-09-14T07:16:12;0.60;;;0.30;;
55069;SDS011;40967;52.070;8.596;2022-09-14T07:18:38;0.57;;;0.40;;
55069;SDS011;40967;52.070;8.596;2022-09-14T07:21:04;0.40;;;0.20;;
55069;SDS011;40967;52.070;8.596;2022-09-14T07:23:40;0.30;;;0.20;;
55069;SDS011;40967;52.070;8.596;2022-09-14T07:26:09;1.02;;;0.38;;
55069;SDS011;40967;52.070;8.596;2022-09-14T07:28:37;0.40;;;0.30;;
55069;SDS011;40967;52.070;8.596;2022-09-14T07:31:04;0.38;;;0.20;;
55069;SDS011;40967;52.070;8.596;2022-09-14T07:33:37;0.88;;;0.38;;
55069;SDS011;40967;52.070;8.596;2022-09-14T07:36:06;0.93;;;0.40;;
55069;SDS011;40967;52.070;8.596;2022-09-14T07:38:33;0.50;;;0.30;;
55069;SDS011;40967;52.070;8.596;2022-09-14T07:41:00;1.08;;;0.40;;
55069;SDS011;40967;52.070;8.596;2022-09-14T07:43:27;0.52;;;0.30;;
55069;SDS011;40967;52.070;8.596;2022-09-14T07:45:53;0.32;;;0.22;;
55069;SDS011;40967;52.070;8.596;2022-09-14T07:48:21;0.50;;;0.30;;
55069;SDS011;40967;52.070;8.596;2022-09-14T07:51:02;1.27;;;0.30;;
55069;SDS011;40967;52.070;8.596;2022-09-14T07:53:34;0.55;;;0.30;;
55069;SDS011;40967;52.070;8.596;2022-09-14T07:56:02;0.80;;;0.30;;
55069;SDS011;40967;52.070;8.596;2022-09-14T07:58:28;0.98;;;0.45;;
55069;SDS011;40967;52.070;8.596;2022-09-14T08:00:57;1.05;;;0.43;;
55069;SDS011;40967;52.070;8.596;2022-09-14T08:03:32;0.60;;;0.30;;
55069;SDS011;40967;52.070;8.596;2022-09-14T08:06:04;0.85;;;0.35;;
55069;SDS011;40967;52.070;8.596;2022-09-14T08:08:32;0.30;;;0.20;;
55069;SDS011;40967;52.070;8.596;2022-09-14T08:11:04;0.33;;;0.20;;
55069;SDS011;40967;52.070;8.596;2022-09-14T08:13:39;0.40;;;0.17;;
55069;SDS011;40967;52.070;8.596;2022-09-14T08:16:06;0.73;;;0.30;;
55069;SDS011;40967;52.070;8.596;2022-09-14T08:18:34;0.30;;;0.20;;
55069;SDS011;40967;52.070;8.596;2022-09-14T08:21:03;0.40;;;0.20;;
55069;SDS011;40967;52.070;8.596;2022-09-14T08:23:47;0.55;;;0.30;;
55069;SDS011;40967;52.070;8.596;2022-09-14T08:26:19;0.70;;;0.40;;
55069;SDS011;40967;52.070;8.596;2022-09-14T08:28:46;0.20;;;0.15;;
55069;SDS011;40967;52.070;8.596;2022-09-14T08:31:13;0.17;;;0.10;;
55069;SDS011;40967;52.070;8.596;2022-09-14T08:33:41;0.30;;;0.10;;
55069;SDS011;40967;52.070;8.596;2022-09-14T08:36:09;0.27;;;0.10;;
55069;SDS011;40967;52.070;8.596;2022-09-14T08:38:36;0.25;;;0.10;;
55069;SDS011;40967;52.070;8.596;2022-09-14T08:41:08;0.35;;;0.25;;
55069;SDS011;40967;52.070;8.596;2022-09-14T08:43:36;1.17;;;0.40;;
55069;SDS011;40967;52.070;8.596;2022-09-14T08:46:04;0.85;;;0.30;;
55069;SDS011;40967;52.070;8.596;2022-09-14T08:48:36;0.38;;;0.20;;
55069;SDS011;40967;52.070;8.596;2022-09-14T08:51:18;0.40;;;0.20;;
55069;SDS011;40967;52.070;8.596;2022-09-14T08:53:49;0.50;;;0.20;;
55069;SDS011;40967;52.070;8.596;2022-09-14T08:56:17;0.20;;;0.10;;
55069;SDS011;40967;52.070;8.596;2022-09-14T09:07:14;0.30;;;0.10;;
55069;SDS011;40967;52.070;8.596;2022-09-14T09:10:03;0.47;;;0.20;;
55069;SDS011;40967;52.070;8.596;2022-09-14T09:12:37;0.57;;;0.20;;
55069;SDS011;40967;52.070;8.596;2022-09-14T09:15:20;0.77;;;0.25;;
55069;SDS011;40967;52.070;8.596;2022-09-14T09:18:34;0.73;;;0.20;;
55069;SDS011;40967;52.070;8.596;2022-09-14T09:21:06;0.10;;;0.10;;
55069;SDS011;40967;52.070;8.596;2022-09-14T09:23:43;0.40;;;0.20;;
55069;SDS011;40967;52.070;8.596;2022-09-14T09:29:07;0.98;;;0.30;;
55069;SDS011;40967;52.070;8.596;2022-09-14T09:31:54;0.70;;;0.25;;
55069;SDS011;40967;52.070;8.596;2022-09-14T09:34:27;0.63;;;0.20;;
55069;SDS011;40967;52.070;8.596;2022-09-14T09:36:53;0.97;;;0.30;;
55069;SDS011;40967;52.070;8.596;2022-09-14T09:39:20;0.30;;;0.20;;
55069;SDS011;40967;52.070;8.596;2022-09-14T09:41:50;0.50;;;0.20;;
55069;SDS011;40967;52.070;8.596;2022-09-14T09:44:20;1.17;;;0.30;;
55069;SDS011;40967;52.070;8.596;2022-09-14T09:46:47;0.55;;;0.30;;
55069;SDS011;40967;52.070;8.596;2022-09-14T09:52:14;0.95;;;0.30;;
55069;SDS011;40967;52.070;8.596;2022-09-14T09:54:42;1.00;;;0.30;;
55069;SDS011;40967;52.070;8.596;2022-09-14T09:57:33;0.68;;;0.30;;
55069;SDS011;40967;52.070;8.596;2022-09-14T10:00:16;1.05;;;0.40;;
55069;SDS011;40967;52.070;8.596;2022-09-14T10:02:47;0.52;;;0.20;;
55069;SDS011;40967;52.070;8.596;2022-09-14T10:07:39;0.73;;;0.35;;
55069;SDS011;40967;52.070;8.596;2022-09-14T10:10:18;0.40;;;0.30;;
55069;SDS011;40967;52.070;8.596;2022-09-14T10:13:29;0.30;;;0.20;;
55069;SDS011;40967;52.070;8.596;2022-09-14T10:16:04;0.30;;;0.10;;
55069;SDS011;40967;52.070;8.596;2022-09-14T10:18:30;0.10;;;0.10;;
55069;SDS011;40967;52.070;8.596;2022-09-14T10:23:24;0.20;;;0.10;;
55069;SDS011;40967;52.070;8.596;2022-09-14T10:25:53;0.30;;;0.20;;
55069;SDS011;40967;52.070;8.596;2022-09-14T10:28:47;0.77;;;0.20;;
55069;SDS011;40967;52.070;8.596;2022-09-14T10:33:39;0.30;;;0.10;;
55069;SDS011;40967;52.070;8.596;2022-09-14T10:41:51;0.28;;;0.10;;
55069;SDS011;40967;52.070;8.596;2022-09-14T10:44:39;0.60;;;0.10;;
55069;SDS011;40967;52.070;8.596;2022-09-14T10:56:03;0.10;;;0.00;;
55069;SDS011;40967;52.070;8.596;2022-09-14T10:59:13;0.05;;;0.03;;
55069;SDS011;40967;52.070;8.596;2022-09-14T11:02:18;0.05;;;0.05;;
55069;SDS011;40967;52.070;8.596;2022-09-14T11:05:00;0.10;;;0.10;;
55069;SDS011;40967;52.070;8.596;2022-09-14T11:10:38;0.00;;;0.00;;
55069;SDS011;40967;52.070;8.596;2022-09-14T11:13:32;0.00;;;0.00;;
55069;SDS011;40967;52.070;8.596;2022-09-14T11:26:42;0.00;;;0.00;;
55069;SDS011;40967;52.070;8.596;2022-09-14T11:32:05;0.20;;;0.08;;
55069;SDS011;40967;52.070;8.596;2022-09-14T11:34:56;0.22;;;0.00;;
55069;SDS011;40967;52.070;8.596;2022-09-14T11:37:32;0.22;;;0.10;;
55069;SDS011;40967;52.070;8.596;2022-09-14T11:43:10;0.10;;;0.00;;
55069;SDS011;40967;52.070;8.596;2022-09-14T11:51:50;0.10;;;0.10;;
55069;SDS011;40967;52.070;8.596;2022-09-14T11:54:26;0.28;;;0.10;;
55069;SDS011;40967;52.070;8.596;2022-09-14T11:56:55;0.40;;;0.10;;
55069;SDS011;40967;52.070;8.596;2022-09-14T12:10:19;0.20;;;0.10;;
55069;SDS011;40967;52.070;8.596;2022-09-14T12:12:49;0.10;;;0.10;;
55069;SDS011;40967;52.070;8.596;2022-09-14T12:15:34;0.20;;;0.10;;
55069;SDS011;40967;52.070;8.596;2022-09-14T12:20:36;0.20;;;0.10;;
55069;SDS011;40967;52.070;8.596;2022-09-14T12:23:13;0.47;;;0.20;;
55069;SDS011;40967;52.070;8.596;2022-09-14T12:25:51;0.20;;;0.10;;
55069;SDS011;40967;52.070;8.596;2022-09-14T12:28:41;0.30;;;0.10;;
55069;SDS011;40967;52.070;8.596;2022-09-14T12:31:12;0.20;;;0.08;;
55069;SDS011;40967;52.070;8.596;2022-09-14T12:34:20;0.27;;;0.10;;
55069;SDS011;40967;52.070;8.596;2022-09-14T12:39:34;0.10;;;0.10;;
55069;SDS011;40967;52.070;8.596;2022-09-14T12:42:02;0.70;;;0.20;;
55069;SDS011;40967;52.070;8.596;2022-09-14T12:44:42;0.40;;;0.10;;
55069;SDS011;40967;52.070;8.596;2022-09-14T12:49:48;0.13;;;0.10;;
55069;SDS011;40967;52.070;8.596;2022-09-14T12:52:19;0.00;;;0.00;;
55069;SDS011;40967;52.070;8.596;2022-09-14T12:58:04;0.47;;;0.10;;
55069;SDS011;40967;52.070;8.596;2022-09-14T13:00:57;0.33;;;0.20;;
55069;SDS011;40967;52.070;8.596;2022-09-14T13:03:34;0.52;;;0.10;;
55069;SDS011;40967;52.070;8.596;2022-09-14T13:06:17;0.43;;;0.20;;
55069;SDS011;40967;52.070;8.596;2022-09-14T13:08:47;0.13;;;0.08;;
55069;SDS011;40967;52.070;8.596;2022-09-14T13:11:30;0.50;;;0.10;;
55069;SDS011;40967;52.070;8.596;2022-09-14T13:14:01;0.17;;;0.10;;
55069;SDS011;40967;52.070;8.596;2022-09-14T13:16:45;0.00;;;0.00;;
55069;SDS011;40967;52.070;8.596;2022-09-14T13:21:47;0.30;;;0.20;;
55069;SDS011;40967;52.070;8.596;2022-09-14T13:26:57;0.85;;;0.20;;
55069;SDS011;40967;52.070;8.596;2022-09-14T13:29:29;0.35;;;0.10;;
55069;SDS011;40967;52.070;8.596;2022-09-14T13:31:55;0.68;;;0.30;;
55069;SDS011;40967;52.070;8.596;2022-09-14T13:36:54;0.75;;;0.17;;
55069;SDS011;40967;52.070;8.596;2022-09-14T13:39:33;0.30;;;0.10;;
55069;SDS011;40967;52.070;8.596;2022-09-14T13:42:02;0.68;;;0.10;;
55069;SDS011;40967;52.070;8.596;2022-09-14T13:44:34;0.20;;;0.00;;
55069;SDS011;40967;52.070;8.596;2022-09-14T13:47:09;0.40;;;0.10;;
55069;SDS011;40967;52.070;8.596;2022-09-14T13:49:38;0.20;;;0.17;;
55069;SDS011;40967;52.070;8.596;2022-09-14T13:54:45;0.47;;;0.10;;
55069;SDS011;40967;52.070;8.596;2022-09-14T14:02:27;0.20;;;0.10;;
55069;SDS011;40967;52.070;8.596;2022-09-14T14:04:56;0.35;;;0.10;;
55069;SDS011;40967;52.070;8.596;2022-09-14T14:07:22;0.27;;;0.10;;
55069;SDS011;40967;52.070;8.596;2022-09-14T14:09:53;0.10;;;0.08;;
55069;SDS011;40967;52.070;8.596;2022-09-14T14:12:22;0.30;;;0.00;;
55069;SDS011;40967;52.070;8.596;2022-09-14T14:14:56;0.35;;;0.08;;
55069;SDS011;40967;52.070;8.596;2022-09-14T14:19:52;0.10;;;0.10;;
55069;SDS011;40967;52.070;8.596;2022-09-14T14:22:30;0.10;;;0.10;;
55069;SDS011;40967;52.070;8.596;2022-09-14T14:25:16;0.10;;;0.10;;
55069;SDS011;40967;52.070;8.596;2022-09-14T14:27:56;0.10;;;0.10;;
55069;SDS011;40967;52.070;8.596;2022-09-14T14:30:24;0.25;;;0.10;;
55069;SDS011;40967;52.070;8.596;2022-09-14T14:32:52;0.10;;;0.10;;
55069;SDS011;40967;52.070;8.596;2022-09-14T14:35:26;0.20;;;0.10;;
55069;SDS011;40967;52.070;8.596;2022-09-14T14:37:58;0.35;;;0.15;;
55069;SDS011;40967;52.070;8.596;2022-09-14T14:40:26;0.28;;;0.10;;
55069;SDS011;40967;52.070;8.596;2022-09-14T14:42:52;0.13;;;0.10;;
55069;SDS011;40967;52.070;8.596;2022-09-14T14:45:24;0.40;;;0.10;;
55069;SDS011;40967;52.070;8.596;2022-09-14T14:47:51;0.35;;;0.17;;
55069;SDS011;40967;52.070;8.596;2022-09-14T14:50:20;0.10;;;0.10;;
55069;SDS011;40967;52.070;8.596;2022-09-14T14:52:51;0.40;;;0.10;;
55069;SDS011;40967;52.070;8.596;2022-09-14T14:55:19;0.45;;;0.10;;
55069;SDS011;40967;52.070;8.596;2022-09-14T14:57:46;0.20;;;0.10;;
55069;SDS011;40967;52.070;8.596;2022-09-14T15:00:13;0.30;;;0.17;;
55069;SDS011;40967;52.070;8.596;2022-09-14T15:02:42;0.55;;;0.20;;
55069;SDS011;40967;52.070;8.596;2022-09-14T15:05:09;0.30;;;0.20;;
55069;SDS011;40967;52.070;8.596;2022-09-14T15:07:36;0.77;;;0.30;;
55069;SDS011;40967;52.070;8.596;2022-09-14T15:10:02;0.60;;;0.20;;
55069;SDS011;40967;52.070;8.596;2022-09-14T15:12:28;0.20;;;0.10;;
55069;SDS011;40967;52.070;8.596;2022-09-14T15:14:56;0.38;;;0.10;;
55069;SDS011;40967;52.070;8.596;2022-09-14T15:17:22;0.55;;;0.17;;
55069;SDS011;40967;52.070;8.596;2022-09-14T15:19:47;0.13;;;0.10;;
55069;SDS011;40967;52.070;8.596;2022-09-14T15:22:13;0.50;;;0.20;;
55069;SDS011;40967;52.070;8.596;2022-09-14T15:24:38;0.30;;;0.10;;
55069;SDS011;40967;52.070;8.596;2022-09-14T15:27:04;0.40;;;0.20;;
55069;SDS011;40967;52.070;8.596;2022-09-14T15:29:33;0.50;;;0.20;;
55069;SDS011;40967;52.070;8.596;2022-09-14T15:31:59;0.20;;;0.10;;
55069;SDS011;40967;52.070;8.596;2022-09-14T15:34:26;0.90;;;0.20;;
55069;SDS011;40967;52.070;8.596;2022-09-14T15:36:55;0.25;;;0.10;;
55069;SDS011;40967;52.070;8.596;2022-09-14T15:39:25;0.40;;;0.20;;
55069;SDS011;40967;52.070;8.596;2022-09-14T15:41:54;0.47;;;0.20;;
55069;SDS011;40967;52.070;8.596;2022-09-14T15:44:24;0.88;;;0.28;;
55069;SDS011;40967;52.070;8.596;2022-09-14T15:46:55;0.30;;;0.20;;
55069;SDS011;40967;52.070;8.596;2022-09-14T15:49:22;1.03;;;0.43;;
55069;SDS011;40967;52.070;8.596;2022-09-14T15:51:50;0.40;;;0.20;;
55069;SDS011;40967;52.070;8.596;2022-09-14T15:54:18;0.60;;;0.17;;
55069;SDS011;40967;52.070;8.596;2022-09-14T15:56:56;0.10;;;0.10;;
55069;SDS011;40967;52.070;8.596;2022-09-14T15:59:28;0.47;;;0.20;;
55069;SDS011;40967;52.070;8.596;2022-09-14T16:02:04;0.57;;;0.38;;
55069;SDS011;40967;52.070;8.596;2022-09-14T16:04:34;0.60;;;0.30;;
55069;SDS011;40967;52.070;8.596;2022-09-14T16:07:23;0.40;;;0.10;;
55069;SDS011;40967;52.070;8.596;2022-09-14T16:09:49;0.40;;;0.20;;
55069;SDS011;40967;52.070;8.596;2022-09-14T16:12:21;0.30;;;0.20;;
55069;SDS011;40967;52.070;8.596;2022-09-14T16:14:46;0.10;;;0.00;;
55069;SDS011;40967;52.070;8.596;2022-09-14T16:17:15;0.20;;;0.10;;
55069;SDS011;40967;52.070;8.596;2022-09-14T16:19:40;0.30;;;0.10;;
55069;SDS011;40967;52.070;8.596;2022-09-14T16:22:06;0.27;;;0.17;;
55069;SDS011;40967;52.070;8.596;2022-09-14T16:24:31;0.20;;;0.10;;
55069;SDS011;40967;52.070;8.596;2022-09-14T16:26:56;0.10;;;0.10;;
55069;SDS011;40967;52.070;8.596;2022-09-14T16:29:24;0.40;;;0.10;;
55069;SDS011;40967;52.070;8.596;2022-09-14T16:31:50;0.20;;;0.10;;
55069;SDS011;40967;52.070;8.596;2022-09-14T16:34:17;0.20;;;0.10;;
55069;SDS011;40967;52.070;8.596;2022-09-14T16:36:52;0.50;;;0.10;;
55069;SDS011;40967;52.070;8.596;2022-09-14T16:39:27;0.10;;;0.10;;
55069;SDS011;40967;52.070;8.596;2022-09-14T16:41:54;0.20;;;0.10;;
55069;SDS011;40967;52.070;8.596;2022-09-14T16:44:26;0.30;;;0.20;;
55069;SDS011;40967;52.070;8.596;2022-09-14T16:46:56;0.80;;;0.20;;
55069;SDS011;40967;52.070;8.596;2022-09-14T16:49:22;0.20;;;0.15;;
55069;SDS011;40967;52.070;8.596;2022-09-14T16:51:48;0.80;;;0.20;;
55069;SDS011;40967;52.070;8.596;2022-09-14T16:54:19;0.10;;;0.10;;
55069;SDS011;40967;52.070;8.596;2022-09-14T16:56:45;0.60;;;0.15;;
55069;SDS011;40967;52.070;8.596;2022-09-14T16:59:11;0.10;;;0.10;;
55069;SDS011;40967;52.070;8.596;2022-09-14T17:01:39;0.08;;;0.05;;
55069;SDS011;40967;52.070;8.596;2022-09-14T17:04:06;0.10;;;0.08;;
55069;SDS011;40967;52.070;8.596;2022-09-14T17:06:35;0.50;;;0.17;;
55069;SDS011;40967;52.070;8.596;2022-09-14T17:09:05;0.10;;;0.10;;
55069;SDS011;40967;52.070;8.596;2022-09-14T17:11:33;0.30;;;0.17;;
55069;SDS011;40967;52.070;8.596;2022-09-14T17:13:59;0.10;;;0.10;;
55069;SDS011;40967;52.070;8.596;2022-09-14T17:16:26;0.47;;;0.20;;
55069;SDS011;40967;52.070;8.596;2022-09-14T17:18:52;0.45;;;0.20;;
55069;SDS011;40967;52.070;8.596;2022-09-14T17:21:22;0.38;;;0.20;;
55069;SDS011;40967;52.070;8.596;2022-09-14T17:23:55;0.40;;;0.30;;
55069;SDS011;40967;52.070;8.596;2022-09-14T17:26:22;0.60;;;0.20;;